Time;durP1;ratioP1;P1;durP2;ratioP2;P2;SDS_P1;SDS_P2;PMS_P1;PMS_P2;Temp;Humidity;BMP_temperature;BMP_pressure;BME280_temperature;BME280_humidity;BME280_pressure;Samples;Min_cycle;Max_cycle;Signal;HPM_P1;HPM_P2
2022/02/19 00:01:41;;;;;;;7.75;1.98;;;;;;;2.87;100.00;100871.53;5095586;28;20023;-73
2022/02/19 00:04:07;;;;;;;12.13;2.10;;;;;;;2.86;100.00;100869.84;5062333;28;20039;-73
2022/02/19 00:06:37;;;;;;;12.25;2.30;;;;;;;2.83;100.00;100874.97;5096665;28;20039;-73
2022/02/19 00:09:03;;;;;;;11.55;2.58;;;;;;;2.80;100.00;100876.28;5090148;28;20037;-73
2022/02/19 00:11:29;;;;;;;12.30;2.53;;;;;;;2.76;100.00;100879.72;5089526;28;20036;-73
2022/02/19 00:13:55;;;;;;;12.98;2.08;;;;;;;2.78;100.00;100870.19;5097827;28;20031;-73
2022/02/19 00:16:20;;;;;;;10.48;2.20;;;;;;;2.77;100.00;100875.91;5079386;28;20032;-73
2022/02/19 00:18:46;;;;;;;12.25;2.00;;;;;;;2.72;100.00;100871.13;5096831;27;20034;-73
2022/02/19 00:21:12;;;;;;;13.63;2.30;;;;;;;2.67;100.00;100871.84;5100774;28;20084;-73
2022/02/19 00:23:37;;;;;;;12.68;2.50;;;;;;;2.66;100.00;100872.06;5088921;28;20084;-73
2022/02/19 00:26:03;;;;;;;11.57;1.90;;;;;;;2.64;100.00;100868.69;5099412;28;20036;-73
2022/02/19 00:28:28;;;;;;;9.43;2.33;;;;;;;2.63;100.00;100881.59;5087244;28;20024;-73
2022/02/19 00:30:56;;;;;;;12.68;2.47;;;;;;;2.60;100.00;100886.69;5098917;28;20035;-73
2022/02/19 00:33:23;;;;;;;17.08;2.60;;;;;;;2.56;100.00;100877.25;5081963;28;20052;-73
2022/02/19 00:35:49;;;;;;;6.95;1.77;;;;;;;2.52;100.00;100882.38;5086336;28;20523;-73
2022/02/19 00:38:17;;;;;;;11.88;1.83;;;;;;;2.53;100.00;100880.47;5097839;28;20020;-73
2022/02/19 00:40:49;;;;;;;10.35;2.03;;;;;;;2.47;100.00;100885.78;5088635;28;20097;-73
2022/02/19 00:43:15;;;;;;;12.95;1.52;;;;;;;2.46;100.00;100880.56;5097512;28;20062;-73
2022/02/19 00:45:40;;;;;;;10.73;2.45;;;;;;;2.44;100.00;100879.94;5053951;28;20054;-73
2022/02/19 00:48:06;;;;;;;10.85;2.47;;;;;;;2.41;100.00;100883.16;5114591;28;20075;-73
2022/02/19 00:50:31;;;;;;;10.20;1.70;;;;;;;2.41;100.00;100886.72;5079465;28;20031;-73
2022/02/19 00:52:57;;;;;;;11.35;2.08;;;;;;;2.39;100.00;100888.84;5071485;28;20094;-73
2022/02/19 00:55:23;;;;;;;8.32;2.08;;;;;;;2.37;100.00;100898.41;5118218;27;20043;-73
2022/02/19 00:57:48;;;;;;;12.40;1.90;;;;;;;2.32;100.00;100888.13;5064539;28;20667;-73
2022/02/19 01:00:14;;;;;;;12.52;1.95;;;;;;;2.34;100.00;100887.88;5081225;28;20369;-73
2022/02/19 01:02:40;;;;;;;6.45;2.10;;;;;;;2.31;100.00;100891.91;5084900;28;20404;-73
2022/02/19 01:05:06;;;;;;;7.70;1.73;;;;;;;2.31;100.00;100896.56;5090528;28;20032;-73
2022/02/19 01:07:32;;;;;;;8.75;1.98;;;;;;;2.27;100.00;100890.72;5086703;28;20044;-73
2022/02/19 01:09:57;;;;;;;11.02;2.42;;;;;;;2.24;100.00;100893.91;5086333;28;20032;-73
2022/02/19 01:12:23;;;;;;;9.93;1.75;;;;;;;2.22;100.00;100898.78;5115127;28;20038;-73
2022/02/19 01:14:49;;;;;;;9.02;1.80;;;;;;;2.21;100.00;100886.97;5056418;28;20030;-73
2022/02/19 01:17:14;;;;;;;5.97;1.48;;;;;;;2.24;100.00;100897.47;5095037;28;20426;-73
2022/02/19 01:19:40;;;;;;;9.32;2.05;;;;;;;2.19;100.00;100899.25;5119985;27;20027;-73
2022/02/19 01:22:08;;;;;;;12.00;2.10;;;;;;;2.17;100.00;100887.66;5114334;28;20472;-73
2022/02/19 01:24:34;;;;;;;10.77;1.80;;;;;;;2.16;100.00;100896.97;5065529;28;20421;-73
2022/02/19 01:26:59;;;;;;;10.82;1.70;;;;;;;2.13;100.00;100895.50;5077017;28;20027;-73
2022/02/19 01:29:25;;;;;;;10.27;2.03;;;;;;;2.12;100.00;100893.03;5076535;28;20048;-73
2022/02/19 01:31:51;;;;;;;8.57;1.95;;;;;;;2.08;100.00;100891.78;5082341;28;20369;-73
2022/02/19 01:34:16;;;;;;;10.55;2.00;;;;;;;2.04;100.00;100896.06;5082606;28;20093;-73
2022/02/19 01:36:42;;;;;;;12.13;1.80;;;;;;;2.05;100.00;100904.03;5107895;28;20093;-73
2022/02/19 01:39:07;;;;;;;7.45;1.92;;;;;;;2.03;100.00;100910.81;5098221;28;20714;-73
2022/02/19 01:41:33;;;;;;;8.45;2.00;;;;;;;1.97;100.00;100913.38;5082771;28;20034;-73
2022/02/19 01:44:17;;;;;;;11.95;1.92;;;;;;;1.97;100.00;100913.38;5078903;28;20035;-73
2022/02/19 01:46:42;;;;;;;9.77;2.08;;;;;;;1.98;100.00;100898.63;5099609;28;20055;-73
2022/02/19 01:49:08;;;;;;;12.27;2.70;;;;;;;1.95;100.00;100899.09;5116292;28;20031;-73
2022/02/19 01:51:34;;;;;;;9.13;1.73;;;;;;;1.94;100.00;100908.38;5049971;28;20035;-73
2022/02/19 01:54:04;;;;;;;11.10;2.20;;;;;;;1.90;100.00;100912.63;5082629;28;20040;-73
2022/02/19 01:56:29;;;;;;;10.45;2.45;;;;;;;1.92;100.00;100917.88;5084082;28;20059;-73
2022/02/19 01:58:55;;;;;;;10.35;2.10;;;;;;;1.85;100.00;100917.94;5098284;28;20035;-73
2022/02/19 02:01:20;;;;;;;10.75;1.92;;;;;;;1.84;100.00;100916.28;5037798;28;20032;-73
2022/02/19 02:03:46;;;;;;;9.13;2.03;;;;;;;1.81;100.00;100916.72;5098202;28;20035;-73
2022/02/19 02:06:11;;;;;;;7.35;1.60;;;;;;;1.78;100.00;100918.03;5081126;28;20141;-73
2022/02/19 02:08:37;;;;;;;6.70;1.65;;;;;;;1.77;100.00;100908.13;5082007;28;20031;-73
2022/02/19 02:11:02;;;;;;;7.43;2.20;;;;;;;1.76;100.00;100922.06;5094258;28;20471;-73
2022/02/19 02:13:28;;;;;;;11.77;2.15;;;;;;;1.77;100.00;100918.25;5099234;28;20496;-73
2022/02/19 02:15:54;;;;;;;9.60;2.08;;;;;;;1.73;100.00;100917.03;5070265;28;20031;-73
2022/02/19 02:18:19;;;;;;;7.63;2.10;;;;;;;1.72;100.00;100920.81;5075463;28;20032;-73
2022/02/19 02:20:45;;;;;;;11.80;2.17;;;;;;;1.68;100.00;100920.44;5117982;28;20031;-73
2022/02/19 02:23:11;;;;;;;9.73;2.17;;;;;;;1.68;100.00;100919.59;5093101;28;20042;-73
2022/02/19 02:25:37;;;;;;;8.15;2.00;;;;;;;1.66;100.00;100921.72;5075998;28;20031;-73
2022/02/19 02:28:04;;;;;;;13.50;1.92;;;;;;;1.67;100.00;100923.38;5114769;28;20032;-73
2022/02/19 02:30:31;;;;;;;9.02;2.10;;;;;;;1.63;100.00;100919.44;5093952;28;20499;-73
2022/02/19 02:33:04;;;;;;;12.38;2.38;;;;;;;1.63;100.00;100928.47;5063350;28;20051;-73
2022/02/19 02:35:30;;;;;;;15.65;2.75;;;;;;;1.58;100.00;100924.75;5094345;27;20463;-73
2022/02/19 02:37:55;;;;;;;7.63;2.00;;;;;;;1.57;100.00;100918.44;5096045;28;20032;-73
2022/02/19 02:40:20;;;;;;;8.82;2.22;;;;;;;1.55;100.00;100912.34;5083729;27;20035;-73
2022/02/19 02:42:46;;;;;;;11.07;2.58;;;;;;;1.56;100.00;100912.13;5086186;28;20073;-73
2022/02/19 02:45:11;;;;;;;7.72;2.00;;;;;;;1.47;100.00;100916.19;5095012;27;20078;-73
2022/02/19 02:47:41;;;;;;;11.23;2.13;;;;;;;1.46;100.00;100909.06;5055058;28;20028;-73
2022/02/19 02:50:07;;;;;;;9.68;2.25;;;;;;;1.47;100.00;100926.31;5070224;28;20361;-73
2022/02/19 02:52:32;;;;;;;12.73;2.40;;;;;;;1.46;100.00;100913.69;5114600;28;20034;-73
2022/02/19 02:54:58;;;;;;;9.43;2.40;;;;;;;1.44;100.00;100919.38;5086765;28;20031;-73
2022/02/19 02:57:23;;;;;;;8.55;2.00;;;;;;;1.42;100.00;100910.56;5050937;27;20538;-73
2022/02/19 02:59:49;;;;;;;9.75;1.75;;;;;;;1.41;100.00;100908.88;5081974;28;20034;-73
2022/02/19 03:02:14;;;;;;;12.80;2.38;;;;;;;1.37;100.00;100918.63;5102586;27;20039;-73
2022/02/19 03:04:40;;;;;;;9.02;1.83;;;;;;;1.36;100.00;100916.09;5109582;28;20027;-73
2022/02/19 03:07:05;;;;;;;9.57;2.28;;;;;;;1.33;100.00;100920.09;5127869;27;20441;-73
2022/02/19 03:09:31;;;;;;;10.43;2.03;;;;;;;1.31;100.00;100922.25;5082117;27;20041;-73
2022/02/19 03:11:56;;;;;;;9.65;1.80;;;;;;;1.28;100.00;100925.41;5075195;28;20035;-73
2022/02/19 03:14:21;;;;;;;8.80;1.90;;;;;;;1.27;100.00;100916.38;5103370;28;20039;-73
2022/02/19 03:16:47;;;;;;;11.43;2.53;;;;;;;1.26;100.00;100924.81;5091411;27;20078;-73
2022/02/19 03:19:12;;;;;;;10.80;2.40;;;;;;;1.25;100.00;100921.22;5081009;27;20024;-73
2022/02/19 03:21:38;;;;;;;10.15;1.88;;;;;;;1.24;100.00;100926.94;5067457;27;20522;-73
2022/02/19 03:24:04;;;;;;;11.15;2.35;;;;;;;1.18;100.00;100930.56;5069527;28;20023;-73
2022/02/19 03:26:29;;;;;;;16.02;2.47;;;;;;;1.18;100.00;100931.38;5090531;27;20031;-73
2022/02/19 03:28:55;;;;;;;9.23;2.13;;;;;;;1.16;100.00;100927.19;5105588;28;20080;-73
2022/02/19 03:31:22;;;;;;;15.65;2.35;;;;;;;1.14;100.00;100935.59;5104981;28;20032;-73
2022/02/19 03:33:47;;;;;;;9.98;2.03;;;;;;;1.14;100.00;100937.50;5109057;28;20044;-73
2022/02/19 03:36:13;;;;;;;8.90;1.73;;;;;;;1.10;100.00;100937.97;5096818;28;20034;-73
2022/02/19 03:38:38;;;;;;;10.23;2.08;;;;;;;1.06;100.00;100925.78;5094389;28;20024;-73
2022/02/19 03:41:04;;;;;;;6.65;1.63;;;;;;;1.05;100.00;100926.84;5089681;28;20028;-73
2022/02/19 03:43:29;;;;;;;12.73;1.92;;;;;;;1.06;100.00;100928.53;5106545;28;20264;-73
2022/02/19 03:45:55;;;;;;;9.35;2.05;;;;;;;1.04;100.00;100924.34;5056682;28;20468;-73
2022/02/19 03:48:20;;;;;;;7.72;1.77;;;;;;;1.02;100.00;100924.53;5072947;28;20033;-73
2022/02/19 03:50:46;;;;;;;10.82;1.58;;;;;;;1.00;100.00;100923.91;5079132;28;20399;-73
2022/02/19 03:53:11;;;;;;;10.93;2.03;;;;;;;0.99;100.00;100932.38;5100301;28;20087;-73
2022/02/19 03:55:37;;;;;;;15.48;1.92;;;;;;;0.98;100.00;100939.75;5090305;28;20031;-73
2022/02/19 03:58:02;;;;;;;9.13;1.67;;;;;;;0.97;100.00;100935.31;5066339;28;20032;-73
2022/02/19 04:00:28;;;;;;;7.93;1.85;;;;;;;0.96;100.00;100933.63;5079525;28;20373;-73
2022/02/19 04:02:53;;;;;;;8.98;1.85;;;;;;;0.95;100.00;100931.13;5077766;28;20035;-73
2022/02/19 04:05:19;;;;;;;10.77;2.30;;;;;;;0.90;100.00;100931.78;5078992;28;20077;-73
2022/02/19 04:07:45;;;;;;;10.35;2.72;;;;;;;0.92;100.00;100932.41;5089979;28;20400;-73
2022/02/19 04:10:11;;;;;;;12.00;3.65;;;;;;;0.91;100.00;100936.19;5096963;28;20034;-73
2022/02/19 04:12:37;;;;;;;13.05;3.97;;;;;;;0.88;100.00;100934.72;5094934;28;20480;-73
2022/02/19 04:15:03;;;;;;;7.65;2.85;;;;;;;0.89;100.00;100932.84;5077459;28;20035;-73
2022/02/19 04:17:28;;;;;;;12.27;3.05;;;;;;;0.86;100.00;100945.06;5079666;28;20038;-73
2022/02/19 04:19:54;;;;;;;8.75;2.35;;;;;;;0.85;100.00;100946.13;5096398;28;20028;-73
2022/02/19 04:22:20;;;;;;;14.93;2.88;;;;;;;0.89;100.00;100941.91;5079122;28;20053;-73
2022/02/19 04:24:46;;;;;;;12.77;3.50;;;;;;;0.86;100.00;100949.69;5080451;28;20035;-73
2022/02/19 04:27:13;;;;;;;11.75;2.85;;;;;;;0.88;100.00;100953.88;5077937;28;20537;-73
2022/02/19 04:29:38;;;;;;;7.80;2.30;;;;;;;0.84;100.00;100954.56;5063260;28;20047;-73
2022/02/19 04:32:04;;;;;;;8.05;2.40;;;;;;;0.82;100.00;100943.81;5080736;28;20054;-73
2022/02/19 04:34:30;;;;;;;9.50;2.80;;;;;;;0.83;100.00;100945.50;5080658;28;20111;-73
2022/02/19 04:36:56;;;;;;;11.43;2.15;;;;;;;0.80;100.00;100943.19;5093547;28;20377;-73
2022/02/19 04:39:22;;;;;;;7.45;2.03;;;;;;;0.78;100.00;100950.81;5064587;28;20492;-73
2022/02/19 04:41:47;;;;;;;10.48;2.30;;;;;;;0.77;100.00;100957.31;5063693;28;20029;-73
2022/02/19 04:44:13;;;;;;;9.35;2.00;;;;;;;0.80;100.00;100961.50;5084414;28;20031;-73
2022/02/19 04:46:38;;;;;;;9.13;2.55;;;;;;;0.76;100.00;100963.00;5078774;28;20027;-73
2022/02/19 04:49:04;;;;;;;9.13;2.40;;;;;;;0.75;100.00;100962.16;5073033;28;20388;-73
2022/02/19 04:51:29;;;;;;;11.57;2.42;;;;;;;0.72;100.00;100965.31;5068375;28;20472;-73
2022/02/19 04:53:55;;;;;;;7.35;2.00;;;;;;;0.73;100.00;100963.44;5092952;28;20036;-73
2022/02/19 04:56:21;;;;;;;8.07;2.10;;;;;;;0.71;100.00;100963.66;5075973;28;20034;-73
2022/02/19 04:58:47;;;;;;;8.30;2.10;;;;;;;0.74;100.00;100962.38;5079201;28;20032;-73
2022/02/19 05:01:13;;;;;;;10.35;2.08;;;;;;;0.71;100.00;100958.19;5083317;28;20020;-73
2022/02/19 05:03:38;;;;;;;9.50;2.10;;;;;;;0.70;100.00;100955.66;5066151;28;20160;-73
2022/02/19 05:06:04;;;;;;;10.77;2.22;;;;;;;0.69;100.00;100954.00;5070681;28;20040;-73
2022/02/19 05:08:30;;;;;;;8.38;2.28;;;;;;;0.69;100.00;100956.72;5108954;27;20024;-73
2022/02/19 05:10:56;;;;;;;9.25;2.10;;;;;;;0.68;100.00;100955.06;5061838;28;20053;-73
2022/02/19 05:13:21;;;;;;;8.70;2.10;;;;;;;0.67;100.00;100959.69;5080094;28;20036;-73
2022/02/19 05:15:47;;;;;;;9.27;2.60;;;;;;;0.64;100.00;100963.69;5052799;28;20039;-73
2022/02/19 05:18:14;;;;;;;10.20;2.30;;;;;;;0.63;100.00;100950.22;5079103;28;20404;-73
2022/02/19 05:20:40;;;;;;;6.90;2.33;;;;;;;0.65;100.00;100953.59;5068309;28;20034;-72
2022/02/19 05:23:06;;;;;;;9.32;2.20;;;;;;;0.62;100.00;100949.41;5077864;28;20028;-73
2022/02/19 05:25:31;;;;;;;9.88;2.20;;;;;;;0.59;100.00;100949.84;5073996;28;20032;-74
2022/02/19 05:27:57;;;;;;;12.85;2.63;;;;;;;0.60;100.00;100965.16;5060944;28;20025;-73
2022/02/19 05:30:22;;;;;;;7.28;1.92;;;;;;;0.60;100.00;100962.44;5101634;28;20028;-73
2022/02/19 05:32:48;;;;;;;10.10;2.17;;;;;;;0.57;100.00;100964.78;5065941;28;20028;-73
2022/02/19 05:35:13;;;;;;;9.15;3.05;;;;;;;0.58;100.00;100974.63;5073199;27;20050;-73
2022/02/19 05:37:39;;;;;;;13.10;2.47;;;;;;;0.55;100.00;100970.44;5103040;27;20071;-73
2022/02/19 05:40:05;;;;;;;13.63;2.55;;;;;;;0.53;100.00;100958.03;5100255;27;20091;-73
2022/02/19 05:42:30;;;;;;;7.07;2.13;;;;;;;0.53;100.00;100967.13;5085886;27;20030;-73
2022/02/19 05:44:56;;;;;;;10.25;2.35;;;;;;;0.54;100.00;100963.31;5102477;27;21244;-73
2022/02/19 05:47:21;;;;;;;7.63;2.20;;;;;;;0.51;100.00;100969.22;5083928;27;20027;-73
2022/02/19 05:49:47;;;;;;;8.98;2.53;;;;;;;0.52;100.00;100973.63;5100936;27;20036;-73
2022/02/19 05:52:13;;;;;;;9.70;2.28;;;;;;;0.48;100.00;100968.81;5103018;27;20023;-73
2022/02/19 05:54:39;;;;;;;12.95;2.33;;;;;;;0.46;100.00;100977.22;5115832;27;20027;-73
2022/02/19 05:57:04;;;;;;;10.70;2.70;;;;;;;0.46;100.00;100985.41;5118376;27;20019;-73
2022/02/19 05:59:30;;;;;;;11.70;2.30;;;;;;;0.45;100.00;100975.56;5119080;27;20502;-73
2022/02/19 06:01:55;;;;;;;13.30;2.47;;;;;;;0.42;100.00;100989.66;5100465;27;20508;-73
2022/02/19 06:04:21;;;;;;;11.35;2.60;;;;;;;0.42;100.00;100986.91;5084409;27;20029;-73
2022/02/19 06:06:46;;;;;;;8.82;2.25;;;;;;;0.43;100.00;100991.31;5083137;27;20686;-73
2022/02/19 06:09:12;;;;;;;8.52;2.20;;;;;;;0.40;100.00;100995.31;5082703;27;20096;-73
2022/02/19 06:11:40;;;;;;;7.93;2.20;;;;;;;0.40;100.00;100994.47;5101427;27;20023;-73
2022/02/19 06:14:06;;;;;;;8.82;2.17;;;;;;;0.38;100.00;100999.31;5102176;27;20554;-73
2022/02/19 06:16:31;;;;;;;10.18;2.38;;;;;;;0.36;100.00;100995.94;5114966;27;20097;-73
2022/02/19 06:18:57;;;;;;;9.27;2.58;;;;;;;0.35;100.00;101003.31;5102305;27;20015;-73
2022/02/19 06:21:22;;;;;;;7.45;2.20;;;;;;;0.35;100.00;101005.22;5097942;27;20039;-73
2022/02/19 06:23:48;;;;;;;11.15;2.60;;;;;;;0.32;100.00;101001.00;5115423;27;20022;-73
2022/02/19 06:26:13;;;;;;;6.32;1.95;;;;;;;0.34;100.00;101011.75;5084495;27;20034;-73
2022/02/19 06:28:39;;;;;;;11.43;2.42;;;;;;;0.30;100.00;101005.00;5114909;27;20023;-73
2022/02/19 06:31:04;;;;;;;11.05;2.33;;;;;;;0.26;100.00;101010.06;5096739;27;20044;-73
2022/02/19 06:33:30;;;;;;;11.50;2.83;;;;;;;0.25;100.00;101024.75;5098916;28;20412;-73
2022/02/19 06:35:56;;;;;;;10.05;2.15;;;;;;;0.27;100.00;101022.66;5075875;28;20035;-73
2022/02/19 06:38:22;;;;;;;10.75;2.22;;;;;;;0.24;100.00;101016.81;5089073;27;20143;-73
2022/02/19 06:40:48;;;;;;;11.10;2.70;;;;;;;0.24;100.00;101022.25;5093132;28;20053;-73
2022/02/19 06:43:14;;;;;;;11.23;2.25;;;;;;;0.20;100.00;101014.50;5081047;28;20722;-73
2022/02/19 06:45:39;;;;;;;7.38;2.08;;;;;;;0.21;100.00;101018.06;5085690;28;20031;-73
2022/02/19 06:48:05;;;;;;;8.40;2.17;;;;;;;0.17;100.00;101016.81;5083540;28;20031;-73
2022/02/19 06:50:30;;;;;;;13.18;2.53;;;;;;;0.16;100.00;101020.59;5081101;28;20023;-73
2022/02/19 06:52:56;;;;;;;11.63;2.70;;;;;;;0.16;100.00;101021.44;5074253;28;20046;-73
2022/02/19 06:55:22;;;;;;;9.27;2.13;;;;;;;0.17;100.00;101022.28;5058961;28;20039;-74
2022/02/19 06:57:48;;;;;;;9.30;2.15;;;;;;;0.16;100.00;101017.84;5082359;27;20502;-73
2022/02/19 07:00:14;;;;;;;6.78;1.90;;;;;;;0.14;100.00;101020.81;5091509;28;20023;-73
2022/02/19 07:02:40;;;;;;;10.68;2.38;;;;;;;0.11;100.00;101021.25;5111441;28;20030;-73
2022/02/19 07:05:06;;;;;;;7.07;2.25;;;;;;;0.15;100.00;101019.75;5081821;28;20031;-73
2022/02/19 07:07:31;;;;;;;10.20;2.00;;;;;;;0.13;100.00;101021.03;5081656;28;20120;-73
2022/02/19 07:09:57;;;;;;;9.13;1.90;;;;;;;0.11;100.00;101018.53;5092980;28;20067;-73
2022/02/19 07:12:22;;;;;;;11.68;2.25;;;;;;;0.08;100.00;101023.53;5069492;28;20027;-73
2022/02/19 07:14:48;;;;;;;8.48;2.45;;;;;;;0.09;100.00;101025.25;5074265;28;20032;-73
2022/02/19 07:17:13;;;;;;;11.38;2.38;;;;;;;0.08;100.00;101023.53;5052230;28;20443;-73
2022/02/19 07:19:39;;;;;;;12.73;2.17;;;;;;;0.14;100.00;101025.41;5082078;27;20027;-73
2022/02/19 07:22:05;;;;;;;7.10;2.17;;;;;;;0.11;100.00;101025.84;5068674;28;20430;-73
2022/02/19 07:24:30;;;;;;;7.88;2.45;;;;;;;0.13;100.00;101031.94;5068561;28;20509;-73
2022/02/19 07:26:56;;;;;;;11.75;2.15;;;;;;;0.13;100.00;101032.78;5072536;28;20093;-73
2022/02/19 07:29:22;;;;;;;10.43;2.35;;;;;;;0.11;100.00;101028.56;5051217;28;20059;-73
2022/02/19 07:31:48;;;;;;;9.88;1.98;;;;;;;0.11;100.00;101034.03;5094850;28;20564;-73
2022/02/19 07:34:14;;;;;;;10.07;2.60;;;;;;;0.16;100.00;101031.50;5051052;28;20106;-73
2022/02/19 07:36:39;;;;;;;9.60;2.28;;;;;;;0.13;100.00;101026.47;5071401;28;20050;-73
2022/02/19 07:39:07;;;;;;;8.10;1.98;;;;;;;0.19;100.00;101031.09;5071064;28;20035;-73
2022/02/19 07:41:32;;;;;;;10.00;2.45;;;;;;;0.22;100.00;101027.94;5074554;28;20028;-73
2022/02/19 07:43:58;;;;;;;13.63;2.70;;;;;;;0.30;100.00;101027.69;5069797;28;20384;-73
2022/02/19 07:46:23;;;;;;;13.13;2.78;;;;;;;0.37;100.00;101031.28;5104171;28;20057;-73
2022/02/19 07:48:49;;;;;;;11.15;2.47;;;;;;;0.37;100.00;101036.75;5067284;28;20050;-73
2022/02/19 07:59:26;;;;;;;11.38;3.15;;;;;;;0.58;100.00;101045.72;5080841;28;20035;-73
2022/02/19 08:01:52;;;;;;;14.10;2.45;;;;;;;0.66;100.00;101046.31;5070334;28;20028;-73
2022/02/19 08:04:19;;;;;;;11.73;2.53;;;;;;;0.72;100.00;101044.59;5101121;28;20047;-73
2022/02/19 08:06:45;;;;;;;11.55;2.40;;;;;;;0.81;100.00;101046.06;5073068;28;20055;-73
2022/02/19 08:09:10;;;;;;;7.80;2.08;;;;;;;0.89;100.00;101055.91;5079516;28;20043;-73
2022/02/19 08:11:36;;;;;;;9.43;2.05;;;;;;;0.99;100.00;101059.00;5047172;28;20036;-73
2022/02/19 08:14:01;;;;;;;17.48;2.47;;;;;;;1.08;100.00;101065.91;5084355;28;20085;-73
2022/02/19 08:16:27;;;;;;;13.25;2.78;;;;;;;1.17;100.00;101060.19;5063227;28;20031;-73
2022/02/19 08:18:53;;;;;;;16.08;3.92;;;;;;;1.30;100.00;101065.59;5075668;28;20031;-73
2022/02/19 08:21:20;;;;;;;12.57;3.70;;;;;;;1.39;100.00;101067.00;5085102;28;20031;-73
2022/02/19 08:23:46;;;;;;;14.05;3.28;;;;;;;1.51;100.00;101068.00;5090811;28;20027;-74
2022/02/19 08:26:13;;;;;;;14.05;3.35;;;;;;;1.64;100.00;101077.16;5085507;28;20031;-73
2022/02/19 08:28:38;;;;;;;12.98;3.33;;;;;;;1.78;100.00;101071.41;5066044;28;20034;-74
2022/02/19 08:31:04;;;;;;;11.27;3.40;;;;;;;1.88;100.00;101075.53;5078459;28;20032;-74
2022/02/19 08:33:29;;;;;;;16.73;3.85;;;;;;;1.99;100.00;101074.81;5109756;28;20066;-73
2022/02/19 08:35:55;;;;;;;11.93;3.30;;;;;;;2.09;100.00;101080.63;5090916;28;20031;-73
2022/02/19 08:38:21;;;;;;;15.38;3.88;;;;;;;2.21;100.00;101078.00;5089638;28;20035;-73
2022/02/19 08:40:46;;;;;;;10.65;3.05;;;;;;;2.36;100.00;101077.63;5118955;27;20032;-73
2022/02/19 08:43:12;;;;;;;11.40;2.95;;;;;;;2.46;100.00;101064.25;5083175;27;20035;-73
2022/02/19 08:45:38;;;;;;;12.13;2.90;;;;;;;2.60;100.00;101081.41;5091826;28;20110;-73
2022/02/19 08:48:04;;;;;;;14.60;3.33;;;;;;;2.68;100.00;101070.13;5064760;28;20480;-73
2022/02/19 08:50:33;;;;;;;10.93;2.60;;;;;;;2.80;100.00;101067.47;5103270;27;20066;-73
2022/02/19 08:52:59;;;;;;;16.63;3.50;;;;;;;2.92;100.00;101060.13;5098734;27;20031;-75
2022/02/19 08:55:25;;;;;;;14.05;3.30;;;;;;;3.05;100.00;101067.38;5085830;27;20036;-75
2022/02/19 08:57:51;;;;;;;13.70;3.25;;;;;;;3.21;100.00;101069.47;5088158;28;20032;-72
2022/02/19 09:00:17;;;;;;;15.00;2.95;;;;;;;3.35;100.00;101067.38;5074670;28;20084;-73
2022/02/19 09:02:43;;;;;;;19.13;3.95;;;;;;;3.50;100.00;101077.94;5100729;27;20024;-71
2022/02/19 09:05:09;;;;;;;13.02;2.63;;;;;;;3.64;100.00;101071.19;5103512;28;20531;-72
2022/02/19 09:07:36;;;;;;;13.20;2.90;;;;;;;3.78;100.00;101061.66;5093519;28;20031;-71
2022/02/19 09:10:03;;;;;;;16.50;2.95;;;;;;;3.91;100.00;101071.59;5108963;27;20103;-71
2022/02/19 09:12:28;;;;;;;14.15;2.75;;;;;;;4.06;100.00;101068.41;5113587;27;20042;-73
2022/02/19 09:14:54;;;;;;;9.40;2.38;;;;;;;4.20;100.00;101067.09;5086668;28;20031;-74
2022/02/19 09:17:20;;;;;;;13.40;2.88;;;;;;;4.34;100.00;101064.94;5103625;27;20032;-75
2022/02/19 09:19:45;;;;;;;15.60;2.63;;;;;;;4.48;100.00;101065.53;5108137;28;20036;-75
2022/02/19 09:22:11;;;;;;;13.95;2.65;;;;;;;4.62;100.00;101066.94;5098087;27;20691;-75
2022/02/19 09:24:37;;;;;;;18.77;2.50;;;;;;;4.75;100.00;101065.03;5100071;27;20089;-74
2022/02/19 09:27:03;;;;;;;17.15;3.20;;;;;;;4.90;100.00;101048.84;5103754;28;20040;-74
2022/02/19 09:29:28;;;;;;;18.40;3.55;;;;;;;5.02;100.00;101052.41;5077163;27;20038;-75
2022/02/19 09:31:54;;;;;;;18.98;2.83;;;;;;;5.18;100.00;101055.47;5084462;28;20391;-75
2022/02/19 09:34:22;;;;;;;19.10;2.75;;;;;;;5.30;100.00;101057.09;5054165;28;20040;-75
2022/02/19 09:36:48;;;;;;;12.85;2.58;;;;;;;5.45;100.00;101061.22;5081626;28;20031;-75
2022/02/19 09:39:14;;;;;;;12.75;2.60;;;;;;;5.58;100.00;101059.00;5041979;28;20389;-75
2022/02/19 09:41:42;;;;;;;15.73;3.13;;;;;;;5.71;100.00;101062.53;5064923;28;20028;-74
2022/02/19 09:44:08;;;;;;;14.23;2.78;;;;;;;5.85;100.00;101063.03;5069306;28;20031;-75
2022/02/19 09:46:33;;;;;;;19.83;3.10;;;;;;;5.98;100.00;101052.56;5087765;28;20028;-74
2022/02/19 09:48:59;;;;;;;18.20;2.50;;;;;;;6.10;100.00;101048.88;5048887;28;20039;-76
2022/02/19 09:51:24;;;;;;;10.70;1.92;;;;;;;6.24;100.00;101051.06;5064302;28;20476;-76
2022/02/19 09:53:50;;;;;;;14.50;2.40;;;;;;;6.38;100.00;101050.69;5094281;28;20032;-75
2022/02/19 09:56:15;;;;;;;14.88;2.33;;;;;;;6.53;100.00;101042.66;5079868;28;20408;-75
2022/02/19 09:58:45;;;;;;;20.10;2.95;;;;;;;6.63;100.00;101036.44;5050792;28;20480;-75
2022/02/19 10:01:15;;;;;;;10.10;2.72;;;;;;;6.75;100.00;101028.88;5074438;28;20509;-75
2022/02/19 10:03:40;;;;;;;12.93;2.58;;;;;;;6.88;100.00;101028.50;5081517;28;20078;-75
2022/02/19 10:06:13;;;;;;;10.63;2.35;;;;;;;7.02;100.00;101022.56;5067653;28;20028;-75
2022/02/19 10:08:39;;;;;;;19.33;2.95;;;;;;;7.18;100.00;101010.59;5055743;28;20024;-75
2022/02/19 10:11:04;;;;;;;15.48;2.33;;;;;;;7.27;100.00;101011.84;5079682;28;20032;-75
2022/02/19 10:13:34;;;;;;;17.42;2.55;;;;;;;7.38;100.00;101019.13;5059455;28;20360;-75
2022/02/19 10:16:05;;;;;;;16.42;2.45;;;;;;;7.51;100.00;101020.63;5064993;28;20032;-75
2022/02/19 10:18:34;;;;;;;13.95;2.75;;;;;;;7.64;100.00;101011.09;5062155;28;20027;-75
2022/02/19 10:21:16;;;;;;;15.95;2.35;;;;;;;7.76;100.00;101006.22;5086661;28;20682;-76
2022/02/19 10:23:44;;;;;;;9.85;1.60;;;;;;;7.89;100.00;100995.81;5067971;28;20389;-76
2022/02/19 10:26:10;;;;;;;11.75;2.67;;;;;;;7.97;100.00;100998.94;5078837;28;20102;-76
2022/02/19 10:28:35;;;;;;;8.95;2.22;;;;;;;8.08;100.00;100997.06;5094888;28;20642;-76
2022/02/19 10:31:17;;;;;;;11.00;2.40;;;;;;;8.19;100.00;100987.75;5058082;28;20036;-76
2022/02/19 10:33:42;;;;;;;13.18;2.20;;;;;;;8.28;100.00;100980.59;5045483;28;20051;-76
2022/02/19 10:36:17;;;;;;;12.23;2.08;;;;;;;8.43;100.00;100973.53;5054738;28;20042;-76
2022/02/19 10:38:59;;;;;;;12.95;2.05;;;;;;;8.54;100.00;100972.47;5077329;28;20055;-76
2022/02/19 10:41:34;;;;;;;13.73;2.58;;;;;;;8.65;100.00;100974.19;5062210;28;20051;-73
2022/02/19 10:44:18;;;;;;;11.30;2.50;;;;;;;8.78;100.00;100972.88;5063094;28;20115;-72
2022/02/19 10:46:44;;;;;;;9.18;2.22;;;;;;;8.87;100.00;100973.16;5088596;28;20055;-72
2022/02/19 10:49:11;;;;;;;9.85;2.33;;;;;;;8.97;100.00;100975.13;5048489;28;20542;-72
2022/02/19 10:51:36;;;;;;;14.00;2.03;;;;;;;9.06;100.00;100977.13;5074141;28;20114;-78
2022/02/19 10:54:02;;;;;;;15.00;2.17;;;;;;;9.15;100.00;100982.97;5039167;28;20067;-75
2022/02/19 10:56:28;;;;;;;10.02;2.00;;;;;;;9.27;100.00;100988.25;5090784;28;20388;-77
2022/02/19 10:59:07;;;;;;;15.10;2.30;;;;;;;9.34;100.00;100986.06;5036810;28;20017;-74
2022/02/19 11:01:52;;;;;;;13.70;3.08;;;;;;;9.42;100.00;100982.75;5072275;28;20111;-74
2022/02/19 11:04:19;;;;;;;11.30;2.15;;;;;;;9.53;100.00;100984.41;5107612;28;20027;-74
2022/02/19 11:06:44;;;;;;;12.32;2.05;;;;;;;9.60;99.99;100976.66;5107963;28;20118;-73
2022/02/19 11:09:11;;;;;;;15.20;1.63;;;;;;;9.68;98.54;100971.66;5113820;28;20028;-73
2022/02/19 11:11:38;;;;;;;13.10;1.92;;;;;;;9.77;99.52;100964.44;5115501;28;20479;-74
2022/02/19 11:14:04;;;;;;;11.45;1.65;;;;;;;9.83;99.48;100958.66;5094717;28;20063;-73
2022/02/19 11:16:29;;;;;;;11.48;1.52;;;;;;;9.94;99.50;100962.22;5096822;28;20043;-75
2022/02/19 11:18:55;;;;;;;12.05;2.08;;;;;;;10.02;97.94;100947.78;5097252;28;20031;-75
2022/02/19 11:21:20;;;;;;;10.68;2.42;;;;;;;10.13;98.14;100947.78;5093937;28;20057;-75
2022/02/19 11:23:46;;;;;;;13.43;2.22;;;;;;;10.22;99.14;100951.63;5081635;28;20066;-73